Time;durP1;ratioP1;P1;durP2;ratioP2;P2;SDS_P1;SDS_P2;PMS_P1;PMS_P2;Temp;Humidity;BMP_temperature;BMP_pressure;BME280_temperature;BME280_humidity;BME280_pressure;Samples;Min_cycle;Max_cycle;Signal;HPM_P1;HPM_P2
2021/06/23 00:00:57;;;;;;;7.38;2.90;;;16.20;99.90;;;;;;5093453;28;20714;-62
2021/06/23 00:03:23;;;;;;;4.80;2.83;;;16.30;99.90;;;;;;5092812;28;20404;-62
2021/06/23 00:05:49;;;;;;;3.90;2.70;;;16.20;99.90;;;;;;5092880;28;20392;-62
2021/06/23 00:08:15;;;;;;;5.45;2.70;;;16.20;99.90;;;;;;5093228;28;20372;-61
2021/06/23 00:10:42;;;;;;;6.47;2.90;;;16.20;99.90;;;;;;5093552;28;20741;-62
2021/06/23 00:13:09;;;;;;;4.10;2.80;;;16.20;99.90;;;;;;5092751;28;20377;-62
2021/06/23 00:15:35;;;;;;;4.40;2.97;;;16.20;99.90;;;;;;5093222;28;20757;-64
2021/06/23 00:18:03;;;;;;;7.82;3.40;;;16.20;99.90;;;;;;5092875;28;20404;-61
2021/06/23 00:20:29;;;;;;;4.50;3.08;;;16.10;99.90;;;;;;5072707;28;20383;-62
2021/06/23 00:22:55;;;;;;;7.05;3.25;;;16.10;99.90;;;;;;5091784;28;20470;-61
2021/06/23 00:25:22;;;;;;;7.82;3.30;;;16.10;99.90;;;;;;5093028;28;20727;-62
2021/06/23 00:27:48;;;;;;;5.28;3.25;;;16.10;99.90;;;;;;5074670;28;20400;-62
2021/06/23 00:30:15;;;;;;;5.63;3.40;;;16.10;99.90;;;;;;5092735;28;20407;-62
2021/06/23 00:32:42;;;;;;;7.90;3.70;;;16.10;99.90;;;;;;5093125;28;20377;-62
2021/06/23 00:35:09;;;;;;;5.37;3.07;;;16.10;99.90;;;;;;5090993;28;20384;-62
2021/06/23 00:37:35;;;;;;;7.95;3.20;;;16.10;99.90;;;;;;5092546;28;20408;-61
2021/06/23 00:40:02;;;;;;;4.57;3.03;;;16.10;99.90;;;;;;5091406;28;20364;-62
2021/06/23 00:42:28;;;;;;;6.38;3.35;;;16.10;99.90;;;;;;5092650;28;20393;-63
2021/06/23 00:44:54;;;;;;;5.80;3.40;;;16.00;99.90;;;;;;5075044;28;20392;-61
2021/06/23 00:47:24;;;;;;;6.10;4.93;;;16.00;99.90;;;;;;5090634;28;20380;-63
2021/06/23 00:49:50;;;;;;;9.23;6.60;;;16.00;99.90;;;;;;5091300;28;20373;-62
2021/06/23 00:52:16;;;;;;;10.63;6.72;;;16.00;99.90;;;;;;5092743;28;20376;-63
2021/06/23 00:54:49;;;;;;;8.10;5.97;;;16.00;99.90;;;;;;5090990;28;20389;-63
2021/06/23 00:57:15;;;;;;;8.25;5.85;;;16.00;99.90;;;;;;5091285;28;20404;-63
2021/06/23 00:59:42;;;;;;;7.63;5.53;;;16.00;99.90;;;;;;5091592;28;20738;-62
2021/06/23 01:02:08;;;;;;;6.30;4.57;;;16.00;99.90;;;;;;5091264;28;20381;-62
2021/06/23 01:04:34;;;;;;;8.25;4.22;;;16.00;99.90;;;;;;5091099;28;20404;-62
2021/06/23 01:07:01;;;;;;;5.60;3.90;;;16.00;99.90;;;;;;5091037;28;20380;-61
2021/06/23 01:09:27;;;;;;;5.57;3.53;;;16.00;99.90;;;;;;5074122;28;20372;-61
2021/06/23 01:12:15;;;;;;;4.90;3.38;;;15.90;99.90;;;;;;5090380;28;20388;-63
2021/06/23 01:14:41;;;;;;;6.75;3.30;;;15.90;99.90;;;;;;5082839;28;20385;-62
2021/06/23 01:17:08;;;;;;;7.25;3.20;;;15.90;99.90;;;;;;5087825;28;20797;-61
2021/06/23 01:19:34;;;;;;;4.50;3.30;;;15.90;99.90;;;;;;5090327;28;20384;-62
2021/06/23 01:22:00;;;;;;;6.45;3.50;;;15.90;99.90;;;;;;5089868;28;20381;-62
2021/06/23 01:24:26;;;;;;;4.43;3.40;;;15.90;99.90;;;;;;5089647;28;20384;-62
2021/06/23 01:26:52;;;;;;;7.07;4.22;;;15.90;99.90;;;;;;5073624;28;20754;-61
2021/06/23 01:29:18;;;;;;;5.95;3.97;;;15.80;99.90;;;;;;5091983;28;20377;-61
2021/06/23 01:31:44;;;;;;;6.63;3.60;;;15.80;99.90;;;;;;5092026;28;20738;-62
2021/06/23 01:34:11;;;;;;;7.20;3.92;;;15.80;99.90;;;;;;5091899;28;20403;-63
2021/06/23 01:36:37;;;;;;;7.63;3.78;;;15.80;99.90;;;;;;5091563;28;20915;-63
2021/06/23 01:39:04;;;;;;;6.05;4.10;;;15.70;99.90;;;;;;5091291;28;20389;-63
2021/06/23 01:41:30;;;;;;;7.13;4.10;;;15.70;99.90;;;;;;5073493;28;20805;-63
2021/06/23 01:43:56;;;;;;;6.85;3.42;;;15.70;99.90;;;;;;5091428;28;20384;-61
2021/06/23 01:46:22;;;;;;;7.70;4.00;;;15.70;99.90;;;;;;5091134;28;20877;-63
2021/06/23 01:48:48;;;;;;;8.27;4.07;;;15.70;99.90;;;;;;5091192;28;20404;-61
2021/06/23 01:51:14;;;;;;;8.50;3.70;;;15.70;99.90;;;;;;5090986;28;20891;-62
2021/06/23 01:53:40;;;;;;;5.78;3.63;;;15.70;99.90;;;;;;5090731;28;20384;-62
2021/06/23 01:56:06;;;;;;;6.28;3.42;;;15.60;99.90;;;;;;5091133;28;20404;-61
2021/06/23 01:58:37;;;;;;;6.80;3.90;;;15.60;99.90;;;;;;5090135;28;20416;-62
2021/06/23 02:01:11;;;;;;;5.70;3.97;;;15.60;99.90;;;;;;5089607;28;20385;-62
2021/06/23 02:03:55;;;;;;;6.90;3.70;;;15.60;99.90;;;;;;5091078;28;20732;-62
2021/06/23 02:06:47;;;;;;;5.90;3.97;;;15.60;99.90;;;;;;5091221;28;20737;-60
2021/06/23 02:10:07;;;;;;;5.30;3.80;;;15.50;99.90;;;;;;5089071;28;20376;-62
2021/06/23 02:12:53;;;;;;;9.43;3.85;;;15.50;99.90;;;;;;5028582;28;20393;-63
2021/06/23 02:15:19;;;;;;;5.68;3.90;;;15.50;99.90;;;;;;4999064;28;20403;-62
2021/06/23 02:17:45;;;;;;;8.65;4.03;;;15.50;99.90;;;;;;5019621;28;20757;-60
2021/06/23 02:20:12;;;;;;;8.32;4.20;;;15.50;99.90;;;;;;5066795;28;20376;-62
2021/06/23 02:22:38;;;;;;;7.47;4.05;;;15.40;99.90;;;;;;5090045;28;20389;-63
2021/06/23 02:25:09;;;;;;;7.70;3.90;;;15.50;99.90;;;;;;5072946;28;20399;-63
2021/06/23 02:27:35;;;;;;;7.65;3.88;;;15.40;99.90;;;;;;5087933;28;20395;-61
2021/06/23 02:30:02;;;;;;;8.90;4.20;;;15.40;99.90;;;;;;5088365;28;20384;-63
2021/06/23 02:32:29;;;;;;;7.77;4.00;;;15.40;99.90;;;;;;5090013;28;20742;-61
2021/06/23 02:34:56;;;;;;;8.57;4.45;;;15.40;99.90;;;;;;5089833;28;20389;-63
2021/06/23 02:37:22;;;;;;;10.27;4.50;;;15.50;99.90;;;;;;5090007;28;20915;-62
2021/06/23 02:39:48;;;;;;;9.20;4.45;;;15.40;99.90;;;;;;5089870;28;20369;-62
2021/06/23 02:42:15;;;;;;;9.07;4.67;;;15.40;99.90;;;;;;5071387;28;20396;-62
2021/06/23 02:44:41;;;;;;;8.70;4.50;;;15.40;99.90;;;;;;5089964;28;20399;-61
2021/06/23 02:47:07;;;;;;;7.90;4.45;;;15.40;99.90;;;;;;5089471;28;20749;-61
2021/06/23 02:49:33;;;;;;;6.63;4.30;;;15.40;99.90;;;;;;5089924;28;20376;-61
2021/06/23 02:51:59;;;;;;;6.73;4.10;;;15.40;99.90;;;;;;5091106;28;20440;-62
2021/06/23 02:54:26;;;;;;;7.75;4.00;;;15.40;99.90;;;;;;5089471;28;20377;-62
2021/06/23 02:56:52;;;;;;;9.05;3.97;;;15.40;99.90;;;;;;5089807;28;20389;-62
2021/06/23 02:59:19;;;;;;;8.10;4.00;;;15.40;99.90;;;;;;5095127;28;20852;-62
2021/06/23 03:01:45;;;;;;;8.48;4.03;;;15.40;99.90;;;;;;5094942;28;20380;-62
2021/06/23 03:04:12;;;;;;;7.27;3.30;;;15.40;99.90;;;;;;5094382;28;20450;-62
2021/06/23 03:06:38;;;;;;;5.68;3.30;;;15.50;99.90;;;;;;5078765;28;20388;-61
2021/06/23 03:09:04;;;;;;;7.13;3.35;;;15.50;99.90;;;;;;5074910;28;20389;-61
2021/06/23 03:11:34;;;;;;;4.38;3.08;;;15.50;99.90;;;;;;5094226;28;20388;-62
2021/06/23 03:14:01;;;;;;;5.25;2.90;;;15.50;99.90;;;;;;5091042;28;20888;-61
2021/06/23 03:16:27;;;;;;;4.82;3.10;;;15.60;99.90;;;;;;5092789;28;20396;-61
2021/06/23 03:18:53;;;;;;;7.10;3.25;;;15.50;99.90;;;;;;5093845;28;20877;-62
2021/06/23 03:21:19;;;;;;;4.90;2.85;;;15.50;99.90;;;;;;5092505;28;20376;-61
2021/06/23 03:23:47;;;;;;;8.93;3.20;;;15.50;99.90;;;;;;5094414;28;20381;-62
2021/06/23 03:26:13;;;;;;;5.60;3.00;;;15.60;99.90;;;;;;5074824;28;20709;-61
2021/06/23 03:28:39;;;;;;;5.68;3.45;;;15.60;99.90;;;;;;5093743;28;20395;-61
2021/06/23 03:31:05;;;;;;;6.50;3.08;;;15.60;99.90;;;;;;5090058;28;20389;-62
2021/06/23 03:33:31;;;;;;;6.43;3.13;;;15.60;99.90;;;;;;5092670;28;20895;-62
2021/06/23 03:35:57;;;;;;;10.13;3.03;;;15.60;99.90;;;;;;5091799;28;20389;-63
2021/06/23 03:38:23;;;;;;;4.60;2.72;;;15.70;99.90;;;;;;5095003;28;20205;-62
2021/06/23 03:40:49;;;;;;;5.38;3.00;;;15.70;99.90;;;;;;5095283;28;20633;-62
2021/06/23 03:43:17;;;;;;;3.35;2.53;;;15.70;99.90;;;;;;5094914;28;20177;-63
2021/06/23 03:45:43;;;;;;;4.22;2.83;;;15.80;99.90;;;;;;5093857;28;20165;-63
2021/06/23 03:48:09;;;;;;;5.75;2.60;;;15.80;99.90;;;;;;5092048;28;20176;-62
2021/06/23 03:50:35;;;;;;;5.43;2.70;;;15.80;99.90;;;;;;5092973;28;20181;-61
2021/06/23 03:53:01;;;;;;;3.42;2.67;;;15.80;99.90;;;;;;5094802;28;20176;-62
2021/06/23 03:55:28;;;;;;;3.88;2.10;;;15.80;99.90;;;;;;5080957;28;20174;-64
2021/06/23 03:57:54;;;;;;;3.88;2.78;;;15.80;99.90;;;;;;5093830;28;20205;-64
2021/06/23 04:00:22;;;;;;;5.05;2.38;;;15.80;99.90;;;;;;5093997;28;20185;-64
2021/06/23 04:02:49;;;;;;;3.03;2.40;;;15.80;99.90;;;;;;5094854;28;20181;-63
2021/06/23 04:05:15;;;;;;;4.20;2.63;;;15.70;99.90;;;;;;5093215;28;20188;-64
2021/06/23 04:07:41;;;;;;;4.32;2.95;;;15.70;99.90;;;;;;5093738;28;20637;-62
2021/06/23 04:10:08;;;;;;;14.18;2.90;;;15.70;99.90;;;;;;5075327;28;20649;-63
2021/06/23 04:12:34;;;;;;;3.50;2.25;;;15.80;99.90;;;;;;5094731;28;20177;-64
2021/06/23 04:15:00;;;;;;;5.88;2.67;;;15.80;99.90;;;;;;5094384;28;20172;-63
2021/06/23 04:17:26;;;;;;;4.55;2.17;;;15.90;99.90;;;;;;5093434;28;20197;-64
2021/06/23 04:19:52;;;;;;;5.63;2.30;;;15.90;99.90;;;;;;5074905;28;20207;-63
2021/06/23 04:22:18;;;;;;;3.63;2.40;;;16.00;99.90;;;;;;5093458;28;20201;-63
2021/06/23 04:24:45;;;;;;;4.43;2.50;;;16.00;99.90;;;;;;5093942;28;20185;-61
2021/06/23 04:27:11;;;;;;;3.60;2.03;;;16.00;99.90;;;;;;5094114;28;20169;-63
2021/06/23 04:29:37;;;;;;;2.13;1.60;;;16.00;99.90;;;;;;5075010;28;20192;-60
2021/06/23 04:32:03;;;;;;;5.32;2.10;;;16.10;99.90;;;;;;5093231;28;20184;-64
2021/06/23 04:34:29;;;;;;;3.03;2.20;;;16.10;99.90;;;;;;5093410;28;20196;-63
2021/06/23 04:36:55;;;;;;;2.40;1.60;;;16.20;99.90;;;;;;5093749;28;20228;-61
2021/06/23 04:39:21;;;;;;;3.05;1.73;;;16.20;99.90;;;;;;5092649;28;20217;-63
2021/06/23 04:41:47;;;;;;;3.58;1.90;;;16.20;99.90;;;;;;5084028;28;20177;-62
2021/06/23 04:44:13;;;;;;;3.50;1.88;;;16.20;99.90;;;;;;5086941;28;20189;-61
2021/06/23 04:46:39;;;;;;;2.65;1.80;;;16.20;99.90;;;;;;5091658;28;20180;-63
2021/06/23 04:49:06;;;;;;;2.50;1.90;;;16.20;99.90;;;;;;5091790;28;20185;-62
2021/06/23 04:51:32;;;;;;;3.95;1.90;;;16.20;99.90;;;;;;5088807;28;20173;-62
2021/06/23 04:53:58;;;;;;;5.82;1.63;;;16.20;99.90;;;;;;5093024;28;20181;-62
2021/06/23 04:56:24;;;;;;;6.47;1.67;;;16.20;99.90;;;;;;5092849;28;20176;-62
2021/06/23 04:58:50;;;;;;;3.50;1.98;;;16.20;99.90;;;;;;5090560;28;20234;-64
2021/06/23 05:01:16;;;;;;;4.10;2.13;;;16.20;99.90;;;;;;5090366;28;20170;-64
2021/06/23 05:03:42;;;;;;;6.18;2.10;;;16.10;99.90;;;;;;5092958;28;20185;-63
2021/06/23 05:06:08;;;;;;;4.13;2.33;;;16.10;99.90;;;;;;5090787;28;20181;-63
2021/06/23 05:08:34;;;;;;;4.90;2.40;;;16.10;99.90;;;;;;5085816;28;20181;-63
2021/06/23 05:11:00;;;;;;;6.00;2.57;;;16.00;99.90;;;;;;5092129;28;20527;-62
2021/06/23 05:13:26;;;;;;;4.93;2.92;;;15.90;99.90;;;;;;5090889;28;20188;-63
2021/06/23 05:15:55;;;;;;;4.70;2.53;;;15.90;99.90;;;;;;5093276;28;20176;-61
2021/06/23 05:18:21;;;;;;;5.90;2.70;;;16.00;99.90;;;;;;5075179;28;20197;-63
2021/06/23 05:20:47;;;;;;;6.00;2.50;;;15.90;99.90;;;;;;5093375;28;20165;-62
2021/06/23 05:23:13;;;;;;;5.95;2.65;;;15.90;99.90;;;;;;5088247;28;20197;-64
2021/06/23 05:25:39;;;;;;;4.40;2.38;;;15.90;99.90;;;;;;5055175;28;20174;-63
2021/06/23 05:28:05;;;;;;;4.30;2.58;;;15.90;99.90;;;;;;5076095;28;20181;-61
2021/06/23 05:30:31;;;;;;;3.38;2.17;;;16.00;99.90;;;;;;5057829;28;20545;-64
2021/06/23 05:32:57;;;;;;;6.05;1.88;;;16.00;99.90;;;;;;5092869;28;20177;-63
2021/06/23 05:35:23;;;;;;;3.50;2.00;;;16.00;99.90;;;;;;5083749;28;20622;-64
2021/06/23 05:37:49;;;;;;;3.28;1.75;;;16.00;99.90;;;;;;5085865;28;20205;-59
2021/06/23 05:40:16;;;;;;;5.10;1.83;;;15.90;99.90;;;;;;5092528;28;20672;-64
2021/06/23 05:42:42;;;;;;;5.45;2.03;;;16.00;99.90;;;;;;5081276;28;20173;-62
2021/06/23 05:45:08;;;;;;;5.25;1.88;;;16.00;99.90;;;;;;5092030;28;20178;-62
2021/06/23 05:47:34;;;;;;;4.50;1.80;;;16.00;99.90;;;;;;5086034;28;20181;-61
2021/06/23 05:50:02;;;;;;;5.95;1.95;;;16.00;99.90;;;;;;5074091;28;20181;-62
2021/06/23 05:52:29;;;;;;;3.55;1.88;;;15.90;99.90;;;;;;5087469;28;20170;-64
2021/06/23 05:54:55;;;;;;;1.98;1.50;;;15.90;99.90;;;;;;5081455;28;20210;-62
2021/06/23 05:57:21;;;;;;;4.57;1.50;;;15.90;99.90;;;;;;5090095;28;20204;-60
2021/06/23 05:59:47;;;;;;;3.45;1.83;;;16.00;99.90;;;;;;5088495;28;20192;-61
2021/06/23 06:02:13;;;;;;;2.33;1.52;;;16.00;99.90;;;;;;5090793;28;20497;-67
2021/06/23 06:04:39;;;;;;;5.90;1.60;;;16.10;99.90;;;;;;5081060;28;20188;-67
2021/06/23 06:07:06;;;;;;;3.60;1.77;;;16.20;99.90;;;;;;5051224;28;20166;-68
2021/06/23 06:09:32;;;;;;;5.55;1.50;;;16.30;99.90;;;;;;5035157;28;20575;-68
2021/06/23 06:11:58;;;;;;;3.25;1.50;;;16.30;99.90;;;;;;5070022;28;20490;-67
2021/06/23 06:14:24;;;;;;;3.78;1.30;;;16.30;99.90;;;;;;5069654;28;20184;-68
2021/06/23 06:16:50;;;;;;;1.65;1.23;;;16.30;99.90;;;;;;5069962;28;20189;-69
2021/06/23 06:19:16;;;;;;;3.97;1.52;;;16.30;99.90;;;;;;5068897;28;20210;-68
2021/06/23 06:21:42;;;;;;;1.73;1.17;;;16.30;99.90;;;;;;5071119;28;20193;-67
2021/06/23 06:24:08;;;;;;;2.13;1.20;;;16.40;99.90;;;;;;5071717;28;20185;-68
2021/06/23 06:26:34;;;;;;;3.30;1.10;;;16.50;99.90;;;;;;5070979;28;20182;-68
2021/06/23 06:29:01;;;;;;;4.80;1.23;;;16.50;99.90;;;;;;5069285;28;20650;-65
2021/06/23 06:31:27;;;;;;;2.22;1.15;;;16.50;99.90;;;;;;5070296;28;20179;-70
2021/06/23 06:33:53;;;;;;;2.00;1.10;;;16.60;99.90;;;;;;5056860;28;20194;-69
2021/06/23 06:36:19;;;;;;;1.90;1.30;;;16.60;99.90;;;;;;5075498;28;20222;-68
2021/06/23 06:38:45;;;;;;;3.85;0.85;;;16.70;99.90;;;;;;5075701;28;20202;-69
2021/06/23 06:41:11;;;;;;;1.88;1.13;;;16.70;99.90;;;;;;5075680;28;20178;-68
2021/06/23 06:43:37;;;;;;;2.55;1.10;;;16.80;99.90;;;;;;5076109;28;20178;-67
2021/06/23 06:46:03;;;;;;;5.55;1.02;;;16.80;99.90;;;;;;5077485;28;20162;-66
2021/06/23 06:48:29;;;;;;;2.15;1.10;;;16.80;99.90;;;;;;5095862;28;20651;-66
2021/06/23 06:50:56;;;;;;;1.50;1.27;;;16.80;99.90;;;;;;5095955;28;20185;-67
2021/06/23 06:53:23;;;;;;;1.27;1.00;;;16.80;99.90;;;;;;5095818;28;20173;-68
2021/06/23 06:55:49;;;;;;;1.00;0.90;;;16.80;99.90;;;;;;5095814;28;20189;-68
2021/06/23 06:58:15;;;;;;;1.63;1.23;;;16.80;99.90;;;;;;5095928;28;20681;-66
2021/06/23 07:00:41;;;;;;;2.08;0.90;;;16.80;99.90;;;;;;5096055;28;20177;-67
2021/06/23 07:03:07;;;;;;;1.58;1.15;;;16.80;99.90;;;;;;5095695;28;20542;-68
2021/06/23 07:05:33;;;;;;;2.70;1.30;;;16.80;99.90;;;;;;5093013;28;20380;-70
2021/06/23 07:08:00;;;;;;;4.40;1.40;;;16.80;99.90;;;;;;5093394;28;20391;-67
2021/06/23 07:10:26;;;;;;;5.05;1.58;;;16.70;99.90;;;;;;5092238;28;20396;-68
2021/06/23 07:12:52;;;;;;;2.45;1.50;;;16.60;99.90;;;;;;5094593;28;20381;-68
2021/06/23 07:15:18;;;;;;;4.88;1.50;;;16.50;99.90;;;;;;5093379;28;20375;-68
2021/06/23 07:17:44;;;;;;;4.85;1.70;;;16.40;99.90;;;;;;5094489;28;20392;-68
2021/06/23 07:20:10;;;;;;;5.80;1.90;;;16.20;99.90;;;;;;5094336;28;20384;-68
2021/06/23 07:22:37;;;;;;;2.60;1.52;;;16.10;99.90;;;;;;5094457;28;20399;-68
2021/06/23 07:25:04;;;;;;;3.85;1.50;;;16.20;99.90;;;;;;5094350;28;20369;-67
2021/06/23 07:27:30;;;;;;;3.55;1.60;;;16.20;99.90;;;;;;5092896;28;20368;-68
2021/06/23 07:29:56;;;;;;;3.25;1.50;;;16.20;99.90;;;;;;5075548;28;20407;-69
2021/06/23 07:32:29;;;;;;;12.98;3.58;;;16.30;99.90;;;;;;5093876;28;20384;-68
2021/06/23 07:37:40;;;;;;;3.17;1.50;;;16.30;99.90;;;;;;5093045;28;20407;-65
2021/06/23 07:40:06;;;;;;;2.38;1.30;;;16.40;99.90;;;;;;5093908;28;20404;-67
2021/06/23 07:42:33;;;;;;;4.30;1.58;;;16.40;99.90;;;;;;5094416;28;20727;-67
2021/06/23 07:45:01;;;;;;;7.50;1.50;;;16.50;99.90;;;;;;5091559;28;20395;-67
2021/06/23 07:47:31;;;;;;;3.42;1.50;;;16.60;99.90;;;;;;5093727;28;20392;-68
2021/06/23 07:49:57;;;;;;;2.63;1.10;;;16.60;99.90;;;;;;5093460;28;20372;-69
2021/06/23 07:52:27;;;;;;;2.95;1.42;;;16.70;99.90;;;;;;5093319;28;20730;-66
2021/06/23 08:08:53;;;;;;;4.22;1.70;;;17.10;99.90;;;;;;5100079;28;20383;-64
2021/06/23 08:11:21;;;;;;;5.00;1.50;;;17.20;99.90;;;;;;5093472;28;20456;-67
2021/06/23 08:13:47;;;;;;;7.72;1.70;;;17.30;99.90;;;;;;5093413;28;20376;-67
2021/06/23 08:16:14;;;;;;;7.50;1.88;;;17.40;99.90;;;;;;5093174;28;20392;-67
2021/06/23 08:18:40;;;;;;;7.10;1.80;;;17.60;99.90;;;;;;5093526;28;20869;-68
2021/06/23 08:21:06;;;;;;;4.50;1.55;;;17.70;99.90;;;;;;5092137;28;20365;-68
2021/06/23 08:23:33;;;;;;;5.35;1.50;;;17.90;99.90;;;;;;5092948;28;20376;-68
2021/06/23 08:25:59;;;;;;;6.53;1.50;;;18.10;99.90;;;;;;5093298;28;20729;-68
2021/06/23 08:28:25;;;;;;;4.90;1.77;;;18.20;99.90;;;;;;5092748;28;20748;-68
2021/06/23 08:30:51;;;;;;;4.07;1.70;;;18.20;99.90;;;;;;5093268;28;20380;-68
2021/06/23 08:33:17;;;;;;;2.92;1.40;;;18.10;99.90;;;;;;5093049;28;20856;-68
2021/06/23 08:35:43;;;;;;;6.00;1.60;;;18.10;99.90;;;;;;5090999;28;20415;-68
2021/06/23 08:38:09;;;;;;;3.42;1.40;;;18.10;99.90;;;;;;5074530;28;20396;-68
2021/06/23 08:40:35;;;;;;;3.58;1.23;;;18.10;99.90;;;;;;5093246;28;20391;-69
2021/06/23 08:43:01;;;;;;;3.40;1.42;;;18.10;99.90;;;;;;5092963;28;20722;-68
2021/06/23 08:45:27;;;;;;;3.60;1.30;;;18.10;99.90;;;;;;5092674;28;20389;-68
2021/06/23 08:47:53;;;;;;;2.25;1.30;;;18.00;99.90;;;;;;5092686;28;20376;-69
2021/06/23 08:50:21;;;;;;;2.45;1.20;;;18.10;99.90;;;;;;5091328;28;20376;-67
2021/06/23 08:52:47;;;;;;;3.88;1.30;;;18.20;99.90;;;;;;5091535;28;20394;-68
2021/06/23 08:55:20;;;;;;;8.43;1.45;;;18.40;99.90;;;;;;5090960;28;20376;-67
2021/06/23 08:57:47;;;;;;;2.22;1.40;;;18.40;99.90;;;;;;5073945;28;20737;-67
2021/06/23 09:00:14;;;;;;;4.53;1.50;;;18.60;99.90;;;;;;5090896;28;20908;-67
2021/06/23 09:02:40;;;;;;;5.45;1.40;;;18.70;99.90;;;;;;5092463;28;20395;-68
2021/06/23 09:05:08;;;;;;;2.80;1.15;;;18.70;99.90;;;;;;5092499;28;20392;-67
2021/06/23 09:07:59;;;;;;;1.92;1.20;;;18.60;99.90;;;;;;5092406;28;20368;-68
2021/06/23 09:10:28;;;;;;;2.58;1.40;;;18.60;99.90;;;;;;5067139;28;20384;-67
2021/06/23 09:13:00;;;;;;;2.22;1.40;;;18.40;99.90;;;;;;5092376;28;20381;-65
2021/06/23 09:15:46;;;;;;;2.33;1.50;;;18.20;99.90;;;;;;5092291;28;20387;-68
2021/06/23 09:18:15;;;;;;;5.03;1.40;;;18.20;99.90;;;;;;5091007;28;20725;-68
2021/06/23 09:20:41;;;;;;;2.50;1.50;;;18.30;99.90;;;;;;5092332;28;20391;-68
2021/06/23 09:23:07;;;;;;;4.20;1.60;;;18.40;99.90;;;;;;5090915;28;20566;-68
2021/06/23 09:25:38;;;;;;;1.90;1.30;;;18.40;99.90;;;;;;5091871;28;20415;-67
2021/06/23 09:28:05;;;;;;;4.35;1.65;;;18.50;99.90;;;;;;5079742;28;20378;-68
2021/06/23 09:30:36;;;;;;;2.13;1.30;;;18.60;99.90;;;;;;5070987;28;20383;-67
2021/06/23 09:33:18;;;;;;;4.35;1.30;;;18.60;99.90;;;;;;5054061;28;20370;-66
2021/06/23 09:35:48;;;;;;;3.88;1.30;;;18.60;99.90;;;;;;5070855;28;20406;-66
2021/06/23 09:38:46;;;;;;;1.98;1.23;;;18.60;99.90;;;;;;5070991;28;20385;-67
2021/06/23 09:41:18;;;;;;;2.70;1.40;;;18.40;99.90;;;;;;5055868;28;20380;-66
2021/06/23 09:43:44;;;;;;;4.03;1.40;;;18.30;99.90;;;;;;5071805;28;20386;-67
2021/06/23 09:46:31;;;;;;;4.95;1.25;;;18.30;99.90;;;;;;5053893;28;20384;-67
2021/06/23 09:49:27;;;;;;;3.33;1.30;;;18.20;99.90;;;;;;5071565;28;20382;-68
2021/06/23 09:52:12;;;;;;;4.40;1.45;;;18.30;99.90;;;;;;5071803;28;20375;-66
2021/06/23 09:54:54;;;;;;;3.75;1.25;;;18.30;99.90;;;;;;5071390;28;20700;-67
2021/06/23 09:57:21;;;;;;;3.35;1.20;;;18.50;99.90;;;;;;5053565;28;20415;-67
2021/06/23 09:59:53;;;;;;;3.50;1.27;;;18.40;99.90;;;;;;5053459;28;20751;-68
2021/06/23 10:02:29;;;;;;;3.78;1.20;;;18.30;99.90;;;;;;5054411;28;20397;-68
2021/06/23 10:04:59;;;;;;;5.18;1.27;;;18.20;99.90;;;;;;5071889;28;20413;-67
2021/06/23 10:07:41;;;;;;;2.67;1.13;;;18.20;99.90;;;;;;5053009;28;20366;-66
2021/06/23 10:10:09;;;;;;;4.00;1.05;;;18.10;99.90;;;;;;5071198;28;20390;-66
2021/06/23 10:12:35;;;;;;;1.90;1.30;;;18.30;99.90;;;;;;5053265;28;20398;-66
2021/06/23 10:15:01;;;;;;;2.67;1.02;;;18.40;99.90;;;;;;5053502;28;20382;-68
2021/06/23 10:17:27;;;;;;;3.27;1.10;;;18.50;99.90;;;;;;5071168;28;20410;-66
2021/06/23 10:19:54;;;;;;;2.67;0.88;;;18.70;99.90;;;;;;5037078;28;20909;-67
2021/06/23 10:22:20;;;;;;;2.37;1.00;;;18.70;99.90;;;;;;5070798;28;20370;-67
2021/06/23 10:24:48;;;;;;;2.77;1.40;;;18.90;99.90;;;;;;5037026;28;20374;-67
2021/06/23 10:27:14;;;;;;;1.30;1.00;;;19.00;99.90;;;;;;5036868;28;20867;-67
2021/06/23 10:29:41;;;;;;;1.73;0.95;;;19.00;99.90;;;;;;5036556;28;20382;-67
2021/06/23 10:32:08;;;;;;;1.48;1.00;;;18.80;99.90;;;;;;5071313;28;20857;-67
2021/06/23 10:34:34;;;;;;;0.80;0.70;;;18.80;99.90;;;;;;5071173;28;20405;-66
2021/06/23 10:37:00;;;;;;;0.88;0.88;;;18.40;99.90;;;;;;5071095;28;20401;-66
2021/06/23 10:39:31;;;;;;;7.60;0.82;;;18.30;99.90;;;;;;5070516;28;20406;-69
2021/06/23 10:41:59;;;;;;;1.10;0.70;;;18.40;99.90;;;;;;5036373;28;20378;-67
2021/06/23 10:44:43;;;;;;;0.80;0.60;;;18.40;99.90;;;;;;5053019;28;20397;-66
2021/06/23 10:47:11;;;;;;;2.88;0.70;;;18.30;99.90;;;;;;5054103;28;20366;-67
2021/06/23 10:49:45;;;;;;;2.00;0.60;;;18.40;99.90;;;;;;5070612;28;20389;-66
2021/06/23 10:52:20;;;;;;;0.60;0.50;;;18.20;99.90;;;;;;5070595;28;20867;-68
2021/06/23 10:54:54;;;;;;;1.70;0.70;;;18.20;99.90;;;;;;5071177;28;20390;-67
2021/06/23 10:57:29;;;;;;;1.10;0.60;;;18.30;99.90;;;;;;5053248;28;20386;-68
2021/06/23 11:00:24;;;;;;;0.85;0.50;;;18.40;99.90;;;;;;5036545;28;20397;-66
2021/06/23 11:02:58;;;;;;;1.60;0.60;;;18.60;99.90;;;;;;5061244;28;20390;-68
2021/06/23 11:05:25;;;;;;;2.95;0.70;;;18.60;99.90;;;;;;5052702;28;20888;-68
2021/06/23 11:07:52;;;;;;;1.50;0.60;;;18.60;99.90;;;;;;5036001;28;20397;-69
2021/06/23 11:10:19;;;;;;;1.98;0.50;;;18.50;99.90;;;;;;5070601;28;20434;-67
2021/06/23 11:12:54;;;;;;;0.50;0.50;;;18.60;99.90;;;;;;5070614;28;20367;-67
2021/06/23 11:15:34;;;;;;;0.77;0.50;;;18.80;99.90;;;;;;5036340;28;20441;-67
2021/06/23 11:18:25;;;;;;;1.75;0.50;;;19.00;99.90;;;;;;5070926;28;20378;-69
2021/06/23 11:20:55;;;;;;;3.25;0.60;;;19.30;99.90;;;;;;5074230;28;20402;-67
2021/06/23 11:23:43;;;;;;;19.27;1.30;;;19.40;99.90;;;;;;5073740;28;20829;-67
2021/06/23 11:26:29;;;;;;;0.90;0.40;;;19.20;99.90;;;;;;5074129;28;20370;-68
2021/06/23 11:29:10;;;;;;;2.30;0.60;;;19.00;99.90;;;;;;5073994;28;20397;-67
2021/06/23 11:31:57;;;;;;;0.70;0.50;;;19.10;99.90;;;;;;5073892;28;20386;-69
2021/06/23 11:34:36;;;;;;;0.82;0.43;;;19.10;99.90;;;;;;5056908;28;20378;-67
2021/06/23 11:37:03;;;;;;;0.60;0.40;;;19.10;99.90;;;;;;5073658;28;20409;-68
2021/06/23 11:39:29;;;;;;;2.25;0.50;;;19.20;99.90;;;;;;5038697;28;20407;-66
2021/06/23 11:41:55;;;;;;;0.85;0.55;;;19.40;99.90;;;;;;5073961;28;20914;-66
2021/06/23 11:44:21;;;;;;;1.85;0.45;;;19.10;99.90;;;;;;5055817;28;20382;-67
2021/06/23 11:46:47;;;;;;;1.52;0.50;;;19.10;99.90;;;;;;5072784;28;20871;-68
2021/06/23 11:49:13;;;;;;;2.35;0.60;;;19.00;99.90;;;;;;5055711;28;20397;-66
2021/06/23 11:51:42;;;;;;;4.10;1.00;;;18.80;99.90;;;;;;5055583;28;20382;-64
2021/06/23 11:54:08;;;;;;;2.47;0.60;;;18.90;99.90;;;;;;5073511;28;20834;-67
2021/06/23 11:56:34;;;;;;;5.00;0.55;;;18.90;99.90;;;;;;5073157;28;20827;-67
2021/06/23 11:59:00;;;;;;;6.82;0.90;;;18.90;99.90;;;;;;5073467;28;20398;-66
2021/06/23 12:01:26;;;;;;;2.83;0.70;;;18.90;99.90;;;;;;5073394;28;20378;-68
2021/06/23 12:03:54;;;;;;;7.90;1.50;;;18.90;99.90;;;;;;5072984;28;20870;-67
2021/06/23 12:06:20;;;;;;;1.20;0.70;;;19.10;99.90;;;;;;5073439;28;20746;-66
2021/06/23 12:08:46;;;;;;;4.63;1.75;;;19.10;99.90;;;;;;5072980;28;20366;-65
2021/06/23 12:11:13;;;;;;;2.72;1.15;;;19.00;99.90;;;;;;5073412;28;20398;-67
2021/06/23 12:13:39;;;;;;;4.10;1.70;;;18.80;99.90;;;;;;5073137;28;20370;-67
2021/06/23 12:16:05;;;;;;;5.25;1.00;;;18.70;99.90;;;;;;5073335;28;20375;-68
2021/06/23 12:18:31;;;;;;;4.55;1.00;;;18.70;99.90;;;;;;5072965;28;20389;-68
2021/06/23 12:20:57;;;;;;;1.40;0.63;;;18.80;99.90;;;;;;5073214;28;20409;-67
2021/06/23 12:23:23;;;;;;;3.30;0.60;;;19.00;99.90;;;;;;5072768;28;20371;-68
2021/06/23 12:25:52;;;;;;;1.67;0.70;;;19.10;99.90;;;;;;5073403;28;20378;-69
2021/06/23 12:28:18;;;;;;;2.63;0.88;;;18.90;99.90;;;;;;5054706;28;20398;-66
2021/06/23 12:30:46;;;;;;;8.55;1.10;;;18.70;99.90;;;;;;5054299;28;20394;-66
2021/06/23 12:33:12;;;;;;;3.33;0.95;;;18.50;99.90;;;;;;5054962;28;20378;-65
2021/06/23 12:35:39;;;;;;;1.92;0.80;;;18.20;99.90;;;;;;5072289;28;20398;-67
2021/06/23 12:38:07;;;;;;;1.13;0.65;;;18.20;99.90;;;;;;5054215;28;20394;-67
2021/06/23 12:40:33;;;;;;;1.60;0.73;;;18.50;99.90;;;;;;5054968;28;20881;-68
2021/06/23 12:42:59;;;;;;;3.00;0.90;;;18.30;99.90;;;;;;5072724;28;20362;-67
2021/06/23 12:45:26;;;;;;;0.80;0.60;;;18.20;99.90;;;;;;5052847;28;20408;-68
2021/06/23 12:47:52;;;;;;;2.90;0.70;;;18.40;99.90;;;;;;5034856;28;20391;-68
2021/06/23 12:50:19;;;;;;;1.08;0.60;;;18.30;99.90;;;;;;5052570;28;20399;-67
2021/06/23 12:52:48;;;;;;;1.45;0.73;;;18.30;99.90;;;;;;5018179;28;20380;-67
2021/06/23 12:55:15;;;;;;;1.88;0.70;;;18.40;99.90;;;;;;5052618;28;20748;-66
2021/06/23 12:57:41;;;;;;;2.03;0.70;;;18.40;99.90;;;;;;5052242;28;20387;-68
2021/06/23 13:00:08;;;;;;;1.33;0.67;;;18.50;99.90;;;;;;5052520;28;20426;-67
2021/06/23 13:02:35;;;;;;;1.88;0.70;;;18.50;99.90;;;;;;5033890;28;20498;-67
2021/06/23 13:05:05;;;;;;;1.50;0.75;;;18.50;99.90;;;;;;5034724;28;20398;-68
2021/06/23 13:07:31;;;;;;;2.05;0.70;;;18.60;99.90;;;;;;5052060;28;20372;-68